Time;durP1;ratioP1;P1;durP2;ratioP2;P2;SDS_P1;SDS_P2;PMS_P1;PMS_P2;Temp;Humidity;BMP_temperature;BMP_pressure;BME280_temperature;BME280_humidity;BME280_pressure;Samples;Min_cycle;Max_cycle;Signal;HPM_P1;HPM_P2
2022/11/10 00:00:15;;;;;;;16.55;3.33;;;;;;;;;;5013821;28;20307;-62
2022/11/10 00:02:46;;;;;;;14.20;3.80;;;;;;;;;;5014180;28;20212;-62
2022/11/10 00:05:12;;;;;;;17.05;3.60;;;;;;;;;;5012199;28;20235;-62
2022/11/10 00:07:37;;;;;;;16.40;3.30;;;;;;;;;;5014132;28;20217;-62
2022/11/10 00:10:03;;;;;;;14.20;3.25;;;;;;;;;;5013707;28;20212;-62
2022/11/10 00:12:29;;;;;;;16.55;3.53;;;;;;;;;;5012942;28;20312;-62
2022/11/10 00:17:38;;;;;;;17.50;3.55;;;;;;;;;;5017535;28;20706;-62
2022/11/10 00:20:04;;;;;;;19.15;4.13;;;;;;;;;;5033156;28;20208;-62
2022/11/10 00:22:30;;;;;;;15.32;3.20;;;;;;;;;;5033546;28;20306;-62
2022/11/10 00:24:55;;;;;;;12.82;3.20;;;;;;;;;;5025242;28;20238;-62
2022/11/10 00:27:20;;;;;;;11.55;3.25;;;;;;;;;;5021796;28;20219;-62
2022/11/10 00:29:46;;;;;;;14.20;3.47;;;;;;;;;;5023903;28;20736;-62
2022/11/10 00:32:11;;;;;;;15.10;3.28;;;;;;;;;;5022086;28;20232;-62
2022/11/10 00:34:36;;;;;;;13.98;3.47;;;;;;;;;;5022717;28;20714;-62
2022/11/10 00:37:02;;;;;;;10.60;2.80;;;;;;;;;;5022865;28;20222;-62
2022/11/10 00:39:27;;;;;;;19.65;3.72;;;;;;;;;;5017206;28;20971;-62
2022/11/10 00:41:52;;;;;;;14.57;3.55;;;;;;;;;;5007332;28;20215;-62
2022/11/10 00:44:17;;;;;;;16.30;3.33;;;;;;;;;;5009830;28;20405;-62
2022/11/10 00:46:43;;;;;;;16.40;3.60;;;;;;;;;;5013567;28;20226;-62
2022/11/10 00:49:08;;;;;;;16.35;3.70;;;;;;;;;;5016418;28;20487;-63
2022/11/10 00:51:33;;;;;;;15.18;3.50;;;;;;;;;;5017442;28;20824;-63
2022/11/10 00:53:59;;;;;;;16.45;3.38;;;;;;;;;;5016107;28;20403;-63
2022/11/10 00:56:24;;;;;;;14.32;2.95;;;;;;;;;;5016344;28;20675;-63
2022/11/10 00:58:49;;;;;;;15.35;3.22;;;;;;;;;;5016613;28;20259;-63
2022/11/10 01:01:15;;;;;;;18.92;3.65;;;;;;;;;;5013454;28;20335;-63
2022/11/10 01:03:40;;;;;;;11.90;2.97;;;;;;;;;;5010479;28;20219;-63
2022/11/10 01:06:06;;;;;;;12.57;3.47;;;;;;;;;;5009945;28;20501;-63
2022/11/10 01:08:31;;;;;;;15.18;3.17;;;;;;;;;;5011151;28;20239;-64
2022/11/10 01:11:00;;;;;;;10.45;3.00;;;;;;;;;;5017010;28;20222;-63
2022/11/10 01:13:26;;;;;;;13.98;3.22;;;;;;;;;;5017602;28;20204;-63
2022/11/10 01:15:51;;;;;;;16.70;3.17;;;;;;;;;;5016113;28;20218;-63
2022/11/10 01:18:16;;;;;;;12.10;3.05;;;;;;;;;;5016065;28;20862;-63
2022/11/10 01:20:42;;;;;;;10.63;2.75;;;;;;;;;;5016034;28;20235;-63
2022/11/10 01:23:07;;;;;;;12.55;2.92;;;;;;;;;;5015938;28;20521;-63
2022/11/10 01:25:32;;;;;;;15.82;2.90;;;;;;;;;;5008756;28;20388;-63
2022/11/10 01:27:57;;;;;;;10.82;3.30;;;;;;;;;;5008490;28;20805;-63
2022/11/10 01:30:23;;;;;;;18.85;3.35;;;;;;;;;;5009951;28;20546;-63
2022/11/10 01:32:48;;;;;;;11.38;3.15;;;;;;;;;;5015614;28;20796;-63
2022/11/10 01:35:13;;;;;;;15.80;3.63;;;;;;;;;;5015658;28;20571;-63
2022/11/10 01:37:39;;;;;;;13.68;2.85;;;;;;;;;;5016202;28;20228;-63
2022/11/10 01:40:05;;;;;;;14.80;3.08;;;;;;;;;;5016101;28;20212;-63
2022/11/10 01:42:41;;;;;;;12.93;3.30;;;;;;;;;;5015531;28;20366;-63
2022/11/10 01:45:21;;;;;;;18.23;3.45;;;;;;;;;;4998317;28;20265;-63
2022/11/10 01:47:53;;;;;;;15.23;3.30;;;;;;;;;;5011302;28;20745;-63
2022/11/10 01:50:19;;;;;;;15.48;3.70;;;;;;;;;;4990373;28;20211;-63
2022/11/10 01:52:45;;;;;;;12.93;3.25;;;;;;;;;;4990963;28;20263;-63
2022/11/10 01:55:10;;;;;;;14.18;2.88;;;;;;;;;;5014471;28;20224;-63
2022/11/10 01:57:36;;;;;;;14.10;3.03;;;;;;;;;;5015388;28;20413;-63
2022/11/10 02:00:01;;;;;;;17.95;3.58;;;;;;;;;;5018295;28;20231;-64
2022/11/10 02:02:29;;;;;;;13.20;2.92;;;;;;;;;;5020098;28;20216;-63
2022/11/10 02:04:54;;;;;;;13.40;3.00;;;;;;;;;;5005376;28;20215;-63
2022/11/10 02:07:20;;;;;;;12.60;3.10;;;;;;;;;;5028615;28;20239;-63
2022/11/10 02:09:45;;;;;;;14.50;3.55;;;;;;;;;;5030022;28;20289;-63
2022/11/10 02:12:10;;;;;;;15.00;3.85;;;;;;;;;;5029347;28;20220;-63
2022/11/10 02:14:35;;;;;;;12.98;3.35;;;;;;;;;;5029214;28;20215;-63
2022/11/10 02:17:01;;;;;;;16.17;3.60;;;;;;;;;;5029008;28;20362;-63
2022/11/10 02:19:26;;;;;;;13.10;2.83;;;;;;;;;;5029932;28;20219;-63
2022/11/10 02:21:52;;;;;;;14.32;3.30;;;;;;;;;;5029925;28;20290;-63
2022/11/10 02:24:17;;;;;;;13.88;3.65;;;;;;;;;;5028405;28;20219;-63
2022/11/10 02:26:44;;;;;;;12.75;3.25;;;;;;;;;;5011982;28;20242;-63
2022/11/10 02:29:09;;;;;;;12.82;3.08;;;;;;;;;;5015571;28;20231;-63
2022/11/10 02:31:35;;;;;;;16.83;3.58;;;;;;;;;;5014369;28;20223;-63
2022/11/10 02:34:00;;;;;;;14.40;3.72;;;;;;;;;;5012692;28;20238;-63
2022/11/10 02:36:25;;;;;;;12.75;3.22;;;;;;;;;;5012906;28;20520;-63
2022/11/10 02:38:50;;;;;;;16.65;3.47;;;;;;;;;;5016758;28;20698;-64
2022/11/10 02:41:16;;;;;;;15.93;3.33;;;;;;;;;;5022013;28;20218;-63
2022/11/10 02:43:41;;;;;;;18.88;3.85;;;;;;;;;;5025775;28;20227;-63
2022/11/10 02:46:06;;;;;;;13.73;3.00;;;;;;;;;;5024281;28;20307;-63
2022/11/10 02:48:32;;;;;;;17.95;3.70;;;;;;;;;;5025850;28;20560;-63
2022/11/10 02:50:57;;;;;;;18.20;3.38;;;;;;;;;;5025560;28;20207;-63
2022/11/10 02:53:23;;;;;;;15.98;3.15;;;;;;;;;;5021028;28;20581;-63
2022/11/10 02:55:48;;;;;;;14.75;3.15;;;;;;;;;;5010859;28;20711;-63
2022/11/10 02:58:13;;;;;;;14.95;3.35;;;;;;;;;;5012647;28;20528;-63
2022/11/10 03:00:38;;;;;;;15.20;3.83;;;;;;;;;;5014766;28;20471;-63
2022/11/10 03:03:04;;;;;;;15.85;3.70;;;;;;;;;;5018766;28;20595;-63
2022/11/10 03:05:29;;;;;;;11.88;3.10;;;;;;;;;;5019362;28;20225;-63
2022/11/10 03:07:55;;;;;;;18.35;3.72;;;;;;;;;;5018430;28;20220;-63
2022/11/10 03:10:20;;;;;;;19.33;3.63;;;;;;;;;;5017281;28;20223;-63
2022/11/10 03:12:46;;;;;;;14.10;2.95;;;;;;;;;;5018971;28;20240;-64
2022/11/10 03:15:11;;;;;;;16.60;3.88;;;;;;;;;;5016729;28;20266;-63
2022/11/10 03:17:37;;;;;;;16.45;3.90;;;;;;;;;;5012992;28;20422;-63
2022/11/10 03:20:03;;;;;;;15.55;3.92;;;;;;;;;;5011936;28;20737;-63
2022/11/10 03:22:28;;;;;;;15.80;3.83;;;;;;;;;;5012235;28;20768;-63
2022/11/10 03:24:53;;;;;;;16.08;3.88;;;;;;;;;;5017811;28;20219;-63
2022/11/10 03:27:18;;;;;;;16.90;3.88;;;;;;;;;;5023614;28;20633;-63
2022/11/10 03:29:44;;;;;;;19.88;3.63;;;;;;;;;;5027628;28;20401;-63
2022/11/10 03:32:09;;;;;;;13.13;3.08;;;;;;;;;;5028090;28;20279;-63
2022/11/10 03:34:34;;;;;;;14.05;3.40;;;;;;;;;;5010698;28;20216;-63
2022/11/10 03:36:59;;;;;;;16.10;3.30;;;;;;;;;;5009351;28;20212;-64
2022/11/10 03:39:25;;;;;;;18.95;3.92;;;;;;;;;;5014963;28;20268;-63
2022/11/10 03:41:50;;;;;;;16.35;3.28;;;;;;;;;;5027835;28;20223;-63
2022/11/10 03:44:15;;;;;;;20.38;3.67;;;;;;;;;;5028512;28;20540;-63
2022/11/10 03:46:40;;;;;;;14.20;3.17;;;;;;;;;;5028960;28;20220;-63
2022/11/10 03:49:06;;;;;;;14.20;3.60;;;;;;;;;;5027749;28;20212;-63
2022/11/10 03:51:31;;;;;;;15.10;3.70;;;;;;;;;;5028289;28;20224;-63
2022/11/10 03:53:56;;;;;;;16.35;4.00;;;;;;;;;;4994843;28;20500;-63
2022/11/10 03:56:21;;;;;;;15.25;3.60;;;;;;;;;;5026514;28;20702;-63
2022/11/10 03:58:47;;;;;;;16.55;3.05;;;;;;;;;;5028383;28;20291;-63
2022/11/10 04:01:12;;;;;;;17.15;3.65;;;;;;;;;;5027672;28;20258;-63
2022/11/10 04:03:37;;;;;;;19.70;3.83;;;;;;;;;;5027655;28;20211;-63
2022/11/10 04:08:58;;;;;;;19.42;3.60;;;;;;;;;;5021229;28;20701;-63
2022/11/10 04:16:52;;;;;;;18.90;4.00;;;;;;;;;;5017118;28;20250;-63
2022/11/10 04:19:17;;;;;;;18.02;4.10;;;;;;;;;;4998143;28;20209;-63
2022/11/10 04:21:42;;;;;;;15.52;3.58;;;;;;;;;;4997371;28;20208;-63
2022/11/10 04:24:07;;;;;;;17.75;3.65;;;;;;;;;;4996603;28;20266;-63
2022/11/10 04:26:36;;;;;;;14.50;3.58;;;;;;;;;;4993093;28;20216;-63
2022/11/10 04:29:02;;;;;;;15.57;3.55;;;;;;;;;;4990138;28;20235;-63
2022/11/10 04:31:28;;;;;;;16.17;4.00;;;;;;;;;;4989992;28;20239;-63
2022/11/10 04:33:53;;;;;;;12.80;3.22;;;;;;;;;;4995030;28;20215;-63
2022/11/10 04:36:19;;;;;;;20.63;3.90;;;;;;;;;;4997209;28;20213;-63
2022/11/10 04:38:45;;;;;;;15.27;4.03;;;;;;;;;;4996559;28;20794;-63
2022/11/10 04:41:10;;;;;;;16.88;3.88;;;;;;;;;;4997011;28;20234;-63
2022/11/10 04:43:35;;;;;;;17.88;4.07;;;;;;;;;;4997948;28;20319;-64
2022/11/10 04:46:01;;;;;;;19.17;4.00;;;;;;;;;;4996672;28;20220;-64
2022/11/10 04:48:26;;;;;;;13.88;3.42;;;;;;;;;;4994482;28;20212;-63
2022/11/10 04:50:51;;;;;;;18.95;4.45;;;;;;;;;;4990701;28;20664;-64
2022/11/10 04:53:17;;;;;;;15.93;3.67;;;;;;;;;;4989116;28;20231;-64
2022/11/10 04:55:42;;;;;;;15.23;3.42;;;;;;;;;;4993661;28;20223;-64
2022/11/10 04:58:07;;;;;;;17.58;3.58;;;;;;;;;;4999800;28;20218;-63
2022/11/10 05:00:33;;;;;;;17.42;3.40;;;;;;;;;;5003017;28;20760;-64
2022/11/10 05:02:58;;;;;;;15.90;3.80;;;;;;;;;;5003501;28;20762;-64
2022/11/10 05:05:24;;;;;;;15.15;3.50;;;;;;;;;;5003168;28;20672;-64
2022/11/10 05:07:49;;;;;;;18.27;3.50;;;;;;;;;;5003021;28;20226;-64
2022/11/10 05:10:14;;;;;;;22.35;3.90;;;;;;;;;;5001031;28;20673;-64
2022/11/10 05:12:39;;;;;;;18.23;3.50;;;;;;;;;;4989633;28;20238;-63
2022/11/10 05:15:05;;;;;;;20.10;3.50;;;;;;;;;;4988686;28;20207;-64
2022/11/10 05:17:30;;;;;;;15.65;3.70;;;;;;;;;;4991568;28;20252;-64
2022/11/10 05:19:55;;;;;;;15.45;3.50;;;;;;;;;;4996419;28;20216;-64
2022/11/10 05:22:21;;;;;;;14.95;3.25;;;;;;;;;;4996647;28;20291;-64
2022/11/10 05:24:46;;;;;;;16.25;2.97;;;;;;;;;;4994698;28;20604;-64
2022/11/10 05:27:11;;;;;;;14.13;3.03;;;;;;;;;;5000344;28;20217;-63
2022/11/10 05:29:37;;;;;;;17.73;3.40;;;;;;;;;;4995213;28;20218;-64
2022/11/10 05:32:02;;;;;;;14.80;3.08;;;;;;;;;;4994705;28;20695;-64
2022/11/10 05:34:27;;;;;;;19.17;2.95;;;;;;;;;;4989473;28;20480;-64
2022/11/10 05:36:52;;;;;;;19.42;3.80;;;;;;;;;;4990072;28;20262;-64
2022/11/10 05:39:18;;;;;;;19.70;2.95;;;;;;;;;;4988802;28;20204;-63
2022/11/10 05:41:43;;;;;;;16.00;3.00;;;;;;;;;;4994641;28;20212;-64
2022/11/10 05:44:08;;;;;;;13.13;2.75;;;;;;;;;;4995956;28;20232;-64
2022/11/10 05:46:34;;;;;;;20.73;3.67;;;;;;;;;;4996782;28;20686;-64
2022/11/10 05:48:59;;;;;;;18.38;3.30;;;;;;;;;;4996501;28;20297;-64
2022/11/10 05:51:24;;;;;;;17.05;3.28;;;;;;;;;;4995284;28;20506;-64
2022/11/10 05:53:49;;;;;;;19.60;3.10;;;;;;;;;;4994800;28;20679;-64
2022/11/10 05:56:15;;;;;;;13.25;3.00;;;;;;;;;;4991874;28;20718;-63
2022/11/10 05:58:40;;;;;;;22.40;3.00;;;;;;;;;;4989733;28;20261;-64
2022/11/10 06:01:05;;;;;;;15.82;2.67;;;;;;;;;;5004622;28;20343;-63
2022/11/10 06:03:31;;;;;;;13.95;2.88;;;;;;;;;;5011873;28;20250;-64
2022/11/10 06:05:56;;;;;;;18.00;2.83;;;;;;;;;;5014028;28;20222;-65
2022/11/10 06:08:21;;;;;;;19.38;3.28;;;;;;;;;;5014405;28;20203;-62
2022/11/10 06:10:46;;;;;;;17.13;3.80;;;;;;;;;;5013090;28;20497;-64
2022/11/10 06:13:12;;;;;;;21.17;3.63;;;;;;;;;;5014696;28;20604;-63
2022/11/10 06:15:37;;;;;;;16.67;3.43;;;;;;;;;;5015475;28;20476;-61
2022/11/10 06:18:02;;;;;;;20.92;3.72;;;;;;;;;;5013485;28;20266;-62
2022/11/10 06:20:28;;;;;;;16.00;3.40;;;;;;;;;;5009895;28;20214;-62
2022/11/10 06:23:00;;;;;;;16.15;3.53;;;;;;;;;;5009205;28;20697;-62
2022/11/10 06:25:26;;;;;;;13.52;3.10;;;;;;;;;;5008616;28;20212;-61
2022/11/10 06:27:52;;;;;;;14.85;3.10;;;;;;;;;;5013388;28;20686;-61
2022/11/10 06:30:17;;;;;;;17.75;3.20;;;;;;;;;;5010043;28;20257;-61
2022/11/10 06:32:43;;;;;;;19.75;4.05;;;;;;;;;;5007580;28;20592;-61
2022/11/10 06:35:08;;;;;;;17.38;3.53;;;;;;;;;;5013263;28;20192;-61
2022/11/10 06:37:33;;;;;;;15.82;3.10;;;;;;;;;;5014143;28;20589;-61
2022/11/10 06:39:59;;;;;;;20.33;3.03;;;;;;;;;;5013921;28;20215;-60
2022/11/10 06:42:24;;;;;;;20.55;3.25;;;;;;;;;;5008040;28;20864;-60
2022/11/10 06:44:49;;;;;;;15.32;3.13;;;;;;;;;;5007460;28;20253;-60
2022/11/10 06:47:15;;;;;;;19.43;3.50;;;;;;;;;;5009906;28;20750;-61
2022/11/10 06:49:40;;;;;;;13.68;3.38;;;;;;;;;;5016177;28;20219;-61
2022/11/10 06:52:05;;;;;;;18.55;3.25;;;;;;;;;;5015671;28;20527;-61
2022/11/10 06:54:31;;;;;;;14.85;3.20;;;;;;;;;;5017241;28;20227;-60
2022/11/10 06:56:56;;;;;;;16.30;3.03;;;;;;;;;;5017361;28;20278;-60
2022/11/10 06:59:21;;;;;;;15.27;2.95;;;;;;;;;;5015243;28;20232;-61
2022/11/10 07:01:47;;;;;;;9.98;3.03;;;;;;;;;;4998651;28;20264;-60
2022/11/10 07:04:14;;;;;;;18.02;2.92;;;;;;;;;;4992470;28;20226;-61
2022/11/10 07:06:40;;;;;;;14.68;2.95;;;;;;;;;;4990325;28;20205;-60
2022/11/10 07:09:05;;;;;;;15.00;3.33;;;;;;;;;;4990292;28;20620;-61
2022/11/10 07:11:30;;;;;;;17.73;3.35;;;;;;;;;;5001895;28;20231;-60
2022/11/10 07:13:55;;;;;;;12.70;2.60;;;;;;;;;;5004432;28;20220;-62
2022/11/10 07:16:21;;;;;;;14.88;3.75;;;;;;;;;;5006888;28;20212;-62
2022/11/10 07:18:46;;;;;;;15.63;3.13;;;;;;;;;;5008988;28;20303;-63
2022/11/10 07:21:12;;;;;;;13.45;2.88;;;;;;;;;;5013855;28;20216;-62
2022/11/10 07:23:37;;;;;;;15.98;3.30;;;;;;;;;;5010843;28;20676;-62
2022/11/10 07:26:02;;;;;;;11.95;3.22;;;;;;;;;;5009046;28;20215;-63
2022/11/10 07:28:27;;;;;;;11.90;2.88;;;;;;;;;;5006736;28;20879;-63
2022/11/10 07:30:53;;;;;;;17.88;3.85;;;;;;;;;;4999538;28;20619;-62
2022/11/10 07:33:18;;;;;;;12.93;2.83;;;;;;;;;;5013976;28;20318;-63
2022/11/10 07:35:48;;;;;;;11.70;3.05;;;;;;;;;;5016265;28;20227;-62
2022/11/10 07:38:14;;;;;;;17.40;4.15;;;;;;;;;;5004047;28;20567;-62
2022/11/10 07:40:39;;;;;;;16.65;3.20;;;;;;;;;;5004414;28;20223;-62
2022/11/10 07:43:04;;;;;;;17.90;3.50;;;;;;;;;;5004402;28;20209;-62
2022/11/10 07:45:30;;;;;;;12.82;3.08;;;;;;;;;;5004768;28;20217;-62
2022/11/10 07:47:57;;;;;;;18.38;3.13;;;;;;;;;;5003895;28;20266;-62
2022/11/10 07:50:23;;;;;;;17.80;3.30;;;;;;;;;;4996959;28;20265;-62
2022/11/10 07:52:48;;;;;;;15.77;3.08;;;;;;;;;;4996373;28;20625;-62
2022/11/10 07:55:13;;;;;;;17.95;3.55;;;;;;;;;;4995438;28;20216;-62
2022/11/10 07:57:38;;;;;;;13.40;3.20;;;;;;;;;;5003023;28;20282;-62
2022/11/10 08:00:04;;;;;;;18.92;3.30;;;;;;;;;;5014114;28;20228;-62
2022/11/10 08:02:29;;;;;;;15.30;2.70;;;;;;;;;;5031102;28;20215;-62
2022/11/10 08:04:54;;;;;;;15.82;3.17;;;;;;;;;;5034055;28;20220;-62
2022/11/10 08:07:20;;;;;;;18.23;3.97;;;;;;;;;;5033548;28;20212;-62
2022/11/10 08:09:45;;;;;;;18.45;3.75;;;;;;;;;;5033017;28;20254;-62
2022/11/10 08:12:10;;;;;;;13.18;3.30;;;;;;;;;;5033383;28;20232;-62
2022/11/10 08:14:36;;;;;;;15.00;3.20;;;;;;;;;;5033410;28;20306;-62
2022/11/10 08:17:01;;;;;;;15.98;3.60;;;;;;;;;;5023928;28;20217;-62
2022/11/10 08:19:26;;;;;;;16.15;3.28;;;;;;;;;;5013817;28;20205;-62
2022/11/10 08:21:51;;;;;;;16.58;4.35;;;;;;;;;;5013949;28;20208;-62
2022/11/10 08:24:17;;;;;;;18.70;3.40;;;;;;;;;;5012648;28;20213;-63
2022/11/10 08:26:42;;;;;;;17.98;2.90;;;;;;;;;;5013817;28;20621;-62
2022/11/10 08:29:07;;;;;;;19.30;3.20;;;;;;;;;;5013267;28;20216;-62
2022/11/10 08:31:33;;;;;;;15.85;3.15;;;;;;;;;;5012637;28;20224;-62
2022/11/10 08:33:58;;;;;;;15.10;3.40;;;;;;;;;;5000937;28;20233;-62
2022/11/10 08:36:23;;;;;;;18.67;3.20;;;;;;;;;;4993469;28;20216;-62
2022/11/10 08:38:49;;;;;;;12.70;2.67;;;;;;;;;;4994715;28;20213;-62
2022/11/10 08:41:14;;;;;;;19.58;4.60;;;;;;;;;;5012959;28;20208;-62
2022/11/10 08:43:40;;;;;;;15.55;3.22;;;;;;;;;;5013593;28;20628;-62
2022/11/10 08:46:05;;;;;;;21.40;3.60;;;;;;;;;;5012245;28;20217;-62
2022/11/10 08:48:31;;;;;;;16.40;3.20;;;;;;;;;;5013274;28;20295;-62
2022/11/10 08:50:57;;;;;;;20.10;2.90;;;;;;;;;;5012581;28;20212;-62
2022/11/10 08:53:23;;;;;;;19.10;3.47;;;;;;;;;;5012824;28;20307;-62
2022/11/10 08:55:48;;;;;;;18.02;3.38;;;;;;;;;;5013323;28;20307;-62
2022/11/10 08:58:14;;;;;;;12.38;2.95;;;;;;;;;;5012055;28;20216;-62
2022/11/10 09:00:40;;;;;;;16.40;3.47;;;;;;;;;;5016299;28;20323;-62
2022/11/10 09:03:12;;;;;;;11.15;3.47;;;;;;;;;;5023659;28;20298;-63
2022/11/10 09:05:37;;;;;;;15.77;3.10;;;;;;;;;;5031331;28;20239;-62
2022/11/10 09:08:03;;;;;;;14.73;2.92;;;;;;;;;;5028361;28;20557;-63
2022/11/10 09:10:29;;;;;;;15.80;3.35;;;;;;;;;;5025613;28;20265;-62
2022/11/10 09:12:54;;;;;;;15.23;2.90;;;;;;;;;;5032294;28;20299;-62
2022/11/10 09:15:19;;;;;;;14.30;3.10;;;;;;;;;;5012252;28;20208;-62
2022/11/10 09:17:44;;;;;;;17.63;3.47;;;;;;;;;;5032196;28;20208;-62
2022/11/10 09:20:11;;;;;;;17.13;3.13;;;;;;;;;;5031171;28;20326;-62
2022/11/10 09:22:36;;;;;;;14.55;3.10;;;;;;;;;;5032359;28;20753;-62
2022/11/10 09:25:02;;;;;;;16.40;2.90;;;;;;;;;;5032127;28;20208;-62
2022/11/10 09:27:27;;;;;;;15.30;3.25;;;;;;;;;;5031690;28;20302;-62
2022/11/10 09:29:52;;;;;;;15.30;2.90;;;;;;;;;;5032453;28;20246;-62
2022/11/10 09:32:18;;;;;;;14.77;2.53;;;;;;;;;;5031442;28;20699;-62
2022/11/10 09:34:43;;;;;;;13.85;3.40;;;;;;;;;;5031627;28;20231;-62
2022/11/10 09:37:08;;;;;;;12.35;2.88;;;;;;;;;;5031748;28;20237;-62
2022/11/10 09:39:34;;;;;;;12.30;2.55;;;;;;;;;;5027574;28;20273;-62
2022/11/10 09:41:59;;;;;;;17.85;3.00;;;;;;;;;;5031474;28;20234;-62
2022/11/10 09:44:25;;;;;;;14.68;2.70;;;;;;;;;;5010914;28;20236;-62
2022/11/10 09:46:52;;;;;;;14.07;3.38;;;;;;;;;;5012354;28;20250;-62
2022/11/10 09:49:33;;;;;;;16.35;3.00;;;;;;;;;;5010064;28;20216;-62
2022/11/10 09:51:58;;;;;;;19.70;3.30;;;;;;;;;;5012287;28;20224;-62
2022/11/10 09:54:32;;;;;;;18.85;3.00;;;;;;;;;;5021409;28;20219;-62
2022/11/10 09:56:59;;;;;;;14.90;3.03;;;;;;;;;;5014655;28;20199;-62
2022/11/10 09:59:26;;;;;;;14.82;3.00;;;;;;;;;;5031462;28;20239;-62
2022/11/10 10:01:59;;;;;;;16.33;2.83;;;;;;;;;;5030975;28;20678;-62
2022/11/10 10:04:34;;;;;;;15.55;3.05;;;;;;;;;;5013924;28;20572;-62
2022/11/10 10:07:10;;;;;;;13.80;3.00;;;;;;;;;;5031986;28;20219;-62
2022/11/10 10:09:43;;;;;;;13.48;2.80;;;;;;;;;;5031059;28;20255;-62
2022/11/10 10:12:27;;;;;;;14.25;3.45;;;;;;;;;;5027945;28;20223;-63
2022/11/10 10:14:56;;;;;;;13.98;2.83;;;;;;;;;;5031910;28;20208;-62
2022/11/10 10:17:22;;;;;;;14.20;2.88;;;;;;;;;;5012875;28;20234;-62
2022/11/10 10:19:49;;;;;;;14.13;3.13;;;;;;;;;;5032903;28;20269;-62
2022/11/10 10:22:18;;;;;;;12.63;2.65;;;;;;;;;;5034428;28;20565;-62
2022/11/10 10:24:43;;;;;;;16.23;3.25;;;;;;;;;;5035976;28;20218;-62
2022/11/10 10:27:09;;;;;;;16.48;3.00;;;;;;;;;;5035068;28;20220;-62
2022/11/10 10:29:36;;;;;;;19.35;3.30;;;;;;;;;;5017468;28;20232;-62
2022/11/10 10:32:02;;;;;;;13.35;2.95;;;;;;;;;;5017568;28;20235;-63
2022/11/10 10:34:27;;;;;;;15.13;2.60;;;;;;;;;;5035373;28;20261;-62
2022/11/10 10:36:53;;;;;;;17.13;3.05;;;;;;;;;;5026606;28;20216;-62
2022/11/10 10:39:37;;;;;;;13.75;3.17;;;;;;;;;;5021033;28;20659;-62
2022/11/10 10:42:05;;;;;;;18.08;3.25;;;;;;;;;;5034964;28;20311;-63
2022/11/10 10:44:30;;;;;;;17.30;3.33;;;;;;;;;;5017056;28;20218;-62
2022/11/10 10:46:57;;;;;;;13.40;3.00;;;;;;;;;;5035257;28;20583;-62
2022/11/10 10:49:23;;;;;;;20.27;2.88;;;;;;;;;;5034601;28;20208;-62
2022/11/10 10:51:50;;;;;;;12.80;2.47;;;;;;;;;;5034380;28;20230;-62
2022/11/10 10:54:22;;;;;;;16.30;3.20;;;;;;;;;;5034726;28;20234;-62
2022/11/10 10:56:47;;;;;;;14.80;2.70;;;;;;;;;;5035202;28;20204;-62
2022/11/10 10:59:16;;;;;;;12.82;2.50;;;;;;;;;;5033529;28;20241;-62
2022/11/10 11:01:41;;;;;;;15.10;3.00;;;;;;;;;;5014224;28;20298;-62
2022/11/10 11:04:25;;;;;;;13.07;2.90;;;;;;;;;;5029367;28;20665;-63
2022/11/10 11:06:58;;;;;;;15.27;2.88;;;;;;;;;;5035098;28;20255;-62
2022/11/10 11:09:24;;;;;;;16.33;2.63;;;;;;;;;;5034434;28;20212;-62
2022/11/10 11:12:03;;;;;;;12.43;2.90;;;;;;;;;;5033884;28;20273;-62
2022/11/10 11:14:29;;;;;;;17.98;3.65;;;;;;;;;;5014851;28;20214;-62
2022/11/10 11:16:56;;;;;;;14.30;2.65;;;;;;;;;;4978148;28;20300;-62
2022/11/10 11:19:24;;;;;;;16.95;2.70;;;;;;;;;;4993936;28;20217;-62
2022/11/10 11:22:01;;;;;;;16.15;2.75;;;;;;;;;;4995124;28;20284;-62
2022/11/10 11:24:44;;;;;;;12.93;3.03;;;;;;;;;;5010241;28;20200;-62
2022/11/10 11:27:11;;;;;;;11.82;2.95;;;;;;;;;;4993583;28;20594;-62
2022/11/10 11:29:41;;;;;;;11.40;2.58;;;;;;;;;;5010296;28;20296;-62
2022/11/10 11:32:06;;;;;;;16.10;2.60;;;;;;;;;;4993435;28;20239;-62
2022/11/10 11:34:50;;;;;;;14.82;3.35;;;;;;;;;;4994195;28;20213;-62
2022/11/10 11:37:19;;;;;;;11.45;2.92;;;;;;;;;;4994476;28;20351;-63
2022/11/10 11:39:59;;;;;;;13.75;3.20;;;;;;;;;;5003334;28;20231;-62
2022/11/10 11:42:31;;;;;;;14.50;3.58;;;;;;;;;;4996658;28;20286;-62
2022/11/10 11:45:10;;;;;;;13.98;2.78;;;;;;;;;;4997189;28;20212;-62
2022/11/10 11:47:39;;;;;;;13.32;2.63;;;;;;;;;;5005768;28;20259;-62
2022/11/10 11:50:13;;;;;;;15.43;2.95;;;;;;;;;;5009775;28;20232;-62
2022/11/10 11:52:44;;;;;;;11.82;2.40;;;;;;;;;;5013078;28;20220;-62
2022/11/10 11:55:17;;;;;;;10.13;2.40;;;;;;;;;;5013177;28;20741;-62
2022/11/10 11:57:46;;;;;;;13.52;2.67;;;;;;;;;;5014440;28;20255;-62
2022/11/10 12:00:12;;;;;;;14.50;3.10;;;;;;;;;;5012526;28;20263;-62
2022/11/10 12:02:55;;;;;;;14.65;2.65;;;;;;;;;;5013566;28;20683;-62
2022/11/10 12:05:22;;;;;;;14.20;3.35;;;;;;;;;;5013553;28;20213;-62
2022/11/10 12:07:52;;;;;;;19.98;3.33;;;;;;;;;;5013526;28;20212;-62
2022/11/10 12:10:20;;;;;;;20.92;2.88;;;;;;;;;;5013644;28;20213;-62
2022/11/10 12:12:50;;;;;;;13.00;2.75;;;;;;;;;;5014081;28;20240;-62
2022/11/10 12:15:16;;;;;;;14.30;2.53;;;;;;;;;;5011412;28;20334;-62
2022/11/10 12:17:43;;;;;;;17.33;2.55;;;;;;;;;;5013967;28;20683;-62
2022/11/10 12:20:20;;;;;;;23.55;2.92;;;;;;;;;;5013281;28;20755;-63
2022/11/10 12:22:52;;;;;;;14.43;2.85;;;;;;;;;;5026325;28;20204;-62
2022/11/10 12:25:28;;;;;;;12.82;2.25;;;;;;;;;;5033111;28;20220;-62
2022/11/10 12:27:55;;;;;;;16.25;2.63;;;;;;;;;;5015845;28;20307;-62
2022/11/10 12:30:20;;;;;;;18.05;2.97;;;;;;;;;;5014486;28;20220;-62
2022/11/10 12:32:53;;;;;;;12.15;2.90;;;;;;;;;;5033507;28;20227;-62
2022/11/10 12:35:20;;;;;;;12.85;2.22;;;;;;;;;;5032773;28;20235;-62
2022/11/10 12:37:54;;;;;;;12.40;2.55;;;;;;;;;;5032532;28;20214;-62
2022/11/10 12:40:20;;;;;;;12.68;2.40;;;;;;;;;;5019767;28;20246;-62
2022/11/10 12:42:50;;;;;;;14.23;2.50;;;;;;;;;;5032696;28;20212;-62
2022/11/10 12:45:18;;;;;;;11.07;2.60;;;;;;;;;;5012074;28;20217;-62
2022/11/10 12:47:43;;;;;;;11.63;2.22;;;;;;;;;;5025620;28;20215;-62
2022/11/10 12:50:15;;;;;;;14.30;2.85;;;;;;;;;;5006196;28;20212;-62
2022/11/10 12:52:52;;;;;;;14.40;2.47;;;;;;;;;;5004766;28;20725;-62
2022/11/10 12:55:17;;;;;;;15.98;2.38;;;;;;;;;;5007458;28;20238;-62
2022/11/10 12:57:42;;;;;;;17.58;3.45;;;;;;;;;;5007708;28;20631;-63
2022/11/10 13:00:10;;;;;;;11.80;2.10;;;;;;;;;;5007393;28;20316;-63
2022/11/10 13:02:36;;;;;;;13.38;2.75;;;;;;;;;;5007926;28;20222;-62
2022/11/10 13:05:18;;;;;;;17.33;2.05;;;;;;;;;;5006369;28;20220;-63
2022/11/10 13:07:44;;;;;;;10.82;2.30;;;;;;;;;;4990200;28;20225;-62
2022/11/10 13:10:14;;;;;;;11.57;2.65;;;;;;;;;;5007248;28;20574;-63
2022/11/10 13:12:56;;;;;;;13.93;2.30;;;;;;;;;;5013628;28;20223;-62
2022/11/10 13:15:34;;;;;;;12.30;2.22;;;;;;;;;;5013509;28;20208;-62
2022/11/10 13:18:00;;;;;;;13.45;2.35;;;;;;;;;;5006378;28;20247;-62
2022/11/10 13:20:50;;;;;;;9.48;1.90;;;;;;;;;;5025584;28;20227;-62
2022/11/10 13:23:23;;;;;;;15.25;2.38;;;;;;;;;;5023949;28;20207;-62
2022/11/10 13:25:52;;;;;;;18.50;2.75;;;;;;;;;;5046255;28;20211;-62
2022/11/10 13:28:36;;;;;;;12.13;2.38;;;;;;;;;;5046276;28;20215;-62
2022/11/10 13:31:21;;;;;;;14.43;2.28;;;;;;;;;;5046554;28;20222;-62
2022/11/10 13:34:05;;;;;;;13.05;2.80;;;;;;;;;;5045898;28;20288;-63
2022/11/10 13:36:38;;;;;;;10.43;2.25;;;;;;;;;;5046354;28;20223;-62
2022/11/10 13:39:15;;;;;;;12.98;1.90;;;;;;;;;;5025441;28;20197;-65
2022/11/10 13:41:45;;;;;;;10.95;2.28;;;;;;;;;;5026444;28;20230;-65
2022/11/10 13:44:24;;;;;;;14.15;2.33;;;;;;;;;;5041645;28;20208;-64
2022/11/10 13:46:56;;;;;;;10.25;2.45;;;;;;;;;;5017852;28;20208;-64
2022/11/10 13:49:25;;;;;;;12.55;2.20;;;;;;;;;;5025666;28;20204;-64
2022/11/10 13:51:55;;;;;;;14.57;2.15;;;;;;;;;;5026091;28;20252;-64
2022/11/10 13:54:35;;;;;;;10.10;1.75;;;;;;;;;;5005395;28;20207;-64
2022/11/10 13:57:01;;;;;;;10.85;2.25;;;;;;;;;;5026096;28;20290;-64
2022/11/10 13:59:27;;;;;;;10.65;1.70;;;;;;;;;;5030191;28;20227;-64
2022/11/10 14:01:52;;;;;;;14.52;2.10;;;;;;;;;;5029982;28;20226;-64
2022/11/10 14:04:34;;;;;;;8.63;1.98;;;;;;;;;;5030256;28;20222;-64
2022/11/10 14:06:59;;;;;;;16.73;2.55;;;;;;;;;;5030177;28;20211;-64
2022/11/10 14:09:25;;;;;;;10.95;2.65;;;;;;;;;;5029253;28;20692;-64
2022/11/10 14:11:52;;;;;;;11.32;2.05;;;;;;;;;;5025600;28;20228;-64
2022/11/10 14:14:20;;;;;;;10.45;1.88;;;;;;;;;;5028286;28;20220;-64
2022/11/10 14:16:46;;;;;;;12.07;2.15;;;;;;;;;;5025015;28;20208;-64
2022/11/10 14:19:24;;;;;;;10.73;1.63;;;;;;;;;;5028481;28;20217;-64
2022/11/10 14:21:51;;;;;;;11.82;1.90;;;;;;;;;;5029467;28;20208;-64
2022/11/10 14:24:19;;;;;;;11.82;2.10;;;;;;;;;;5028176;28;20207;-64
2022/11/10 14:26:49;;;;;;;14.27;2.83;;;;;;;;;;5028587;28;20204;-64
2022/11/10 14:29:27;;;;;;;9.57;1.80;;;;;;;;;;5027611;28;20212;-64
2022/11/10 14:31:53;;;;;;;11.75;2.38;;;;;;;;;;5029884;28;20678;-64
2022/11/10 14:34:18;;;;;;;12.10;2.03;;;;;;;;;;5029449;28;20239;-64
2022/11/10 14:36:49;;;;;;;8.25;1.63;;;;;;;;;;5029809;28;20307;-64
2022/11/10 14:39:15;;;;;;;7.85;1.80;;;;;;;;;;5029988;28;20211;-64
2022/11/10 14:41:45;;;;;;;9.23;1.67;;;;;;;;;;5030994;28;20516;-64